createdAt,value
2023-03-11T00:05:23.141Z,15.00
2023-03-11T00:15:23.112Z,15.00
2023-03-11T00:25:23.085Z,14.20
2023-03-11T00:35:23.189Z,15.50
2023-03-11T00:45:23.128Z,14.00
2023-03-11T00:55:23.100Z,14.30
2023-03-11T01:05:23.100Z,14.40
2023-03-11T01:15:23.134Z,13.30
2023-03-11T01:25:23.140Z,14.10
2023-03-11T01:35:23.100Z,14.10
2023-03-11T01:45:23.130Z,15.20
2023-03-11T01:55:23.286Z,14.20
2023-03-11T02:05:23.153Z,13.20
2023-03-11T02:15:23.164Z,15.10
2023-03-11T02:25:23.295Z,14.80
2023-03-11T02:35:23.215Z,16.40
2023-03-11T02:45:23.132Z,14.70
2023-03-11T02:55:23.148Z,14.50
2023-03-11T03:05:23.239Z,15.80
2023-03-11T03:15:23.181Z,14.80
2023-03-11T03:35:23.149Z,17.00
2023-03-11T03:45:23.197Z,15.20
2023-03-11T03:55:23.261Z,14.70
2023-03-11T04:05:23.225Z,16.50
2023-03-11T05:05:23.215Z,14.30
2023-03-11T05:15:23.323Z,14.30
2023-03-11T05:25:23.171Z,13.40
2023-03-11T05:35:23.312Z,13.40
2023-03-11T05:45:23.317Z,15.20
2023-03-11T05:55:23.186Z,13.90
2023-03-11T06:05:23.271Z,14.50
2023-03-11T06:15:23.199Z,16.00
2023-03-11T06:25:23.198Z,13.60
2023-03-11T06:35:23.198Z,13.60
2023-03-11T06:45:23.195Z,14.30
2023-03-11T08:15:23.244Z,14.30
2023-03-11T08:25:23.240Z,14.70
2023-03-11T08:35:23.265Z,15.30
2023-03-11T08:45:23.266Z,15.20
2023-03-11T08:55:23.234Z,15.40
2023-03-11T09:05:23.276Z,15.30
2023-03-11T09:15:23.276Z,15.80
2023-03-11T09:25:23.249Z,15.60
2023-03-11T09:35:23.361Z,15.30
2023-03-11T09:45:23.295Z,15.70
2023-03-11T09:55:23.251Z,15.70
2023-03-11T10:05:23.296Z,16.10
2023-03-11T10:15:23.335Z,17.00
2023-03-11T10:25:23.269Z,15.70
2023-03-11T10:35:23.417Z,16.40
2023-03-11T10:45:23.276Z,17.10
2023-03-11T10:55:23.268Z,16.50
2023-03-11T11:05:23.274Z,17.70
2023-03-11T11:15:23.282Z,17.30
2023-03-11T11:25:23.311Z,16.10
2023-03-11T11:35:23.395Z,18.30
2023-03-11T11:45:23.368Z,17.10
2023-03-11T11:55:23.293Z,15.90
2023-03-11T12:05:23.346Z,15.80
2023-03-11T12:15:23.353Z,16.50
2023-03-11T12:25:23.337Z,17.30
2023-03-11T12:35:23.353Z,18.00
2023-03-11T12:45:23.449Z,16.90
2023-03-11T12:55:23.349Z,18.40
2023-03-11T13:05:23.325Z,18.00
2023-03-11T13:15:23.390Z,19.60
2023-03-11T13:25:23.485Z,17.80
2023-03-11T13:35:23.362Z,17.30
2023-03-11T13:45:23.326Z,18.60
2023-03-11T13:55:23.354Z,18.40
2023-03-11T14:05:23.355Z,17.70
2023-03-11T14:15:23.376Z,19.00
2023-03-11T14:25:23.382Z,17.70
2023-03-11T14:35:23.356Z,19.20
2023-03-11T14:45:23.377Z,16.90
2023-03-11T14:55:23.374Z,17.70
2023-03-11T15:05:23.381Z,18.70
2023-03-11T15:15:23.395Z,17.40
2023-03-11T15:25:23.517Z,17.90
2023-03-11T15:35:23.451Z,17.90
2023-03-11T15:45:23.386Z,20.90
2023-03-11T15:55:26.582Z,18.20
2023-03-11T16:05:23.416Z,18.70
2023-03-11T16:15:23.392Z,19.20
2023-03-11T16:25:23.436Z,20.80
2023-03-11T16:35:23.531Z,18.70
2023-03-11T16:45:23.432Z,18.80
2023-03-11T16:55:23.435Z,19.00
2023-03-11T17:05:23.416Z,19.30
2023-03-11T17:15:23.458Z,19.50
2023-03-11T17:25:23.427Z,19.70
2023-03-11T17:35:23.577Z,17.50
2023-03-11T17:45:23.431Z,18.10
2023-03-11T17:55:23.448Z,17.10
2023-03-11T18:05:23.459Z,14.50
2023-03-11T18:15:23.438Z,18.50
2023-03-11T18:25:23.464Z,16.90
2023-03-11T18:35:23.460Z,17.40
2023-03-11T18:45:23.445Z,15.70
2023-03-11T18:55:23.452Z,16.60
2023-03-11T19:05:23.480Z,17.60
2023-03-11T19:15:23.449Z,16.70
2023-03-11T19:25:23.720Z,17.90
2023-03-11T19:35:23.465Z,17.20
2023-03-11T19:45:23.501Z,17.60
2023-03-11T19:55:23.457Z,19.50
2023-03-11T20:15:23.485Z,18.80
2023-03-11T20:25:23.528Z,17.10
2023-03-11T20:35:23.553Z,15.40
2023-03-11T20:45:23.587Z,15.80
2023-03-11T20:55:23.539Z,15.10
2023-03-11T21:05:23.527Z,17.80
2023-03-11T21:15:23.557Z,16.50
2023-03-11T21:25:23.672Z,16.40
2023-03-11T21:35:23.591Z,14.70
2023-03-11T21:45:23.520Z,16.10
2023-03-11T21:55:23.592Z,16.00
2023-03-11T22:05:23.627Z,16.00
2023-03-11T22:15:23.609Z,16.80
2023-03-11T22:25:23.511Z,17.00
2023-03-11T22:35:23.516Z,13.30
2023-03-11T22:45:23.532Z,17.70
2023-03-11T22:55:23.541Z,14.20
2023-03-11T23:05:23.519Z,17.20
2023-03-11T23:15:23.541Z,15.00
2023-03-11T23:25:23.563Z,12.70
2023-03-11T23:35:23.545Z,14.10
2023-03-11T23:45:23.559Z,13.00
2023-03-11T23:55:23.583Z,15.30
